Vansant, Virginia
Current Conditions -  °F | °C
As of 1:35 PM on Saturday 20 Dec 2014 (Local Time) from KJFZ Reporting Station
Haze Haze  
Wind Chill: 35°   Ceiling: 1400
Heat Index: 35°   Visibility: 5mi
Dew Point: 32°   Wind: 0mph
Humidity: 89%   Direction: NA
Pressure: 30.13"   Gusts: NA
Location:  37.23°N, 82.1°W
Report Text: KJFZ 201835Z AUTO 00000KT 5SM BR SCT006 OVC014 02/00 A3013 RMK AO2 T00151002
Loading
Personal Weather Stations






























Interactive Weather Map New forecast layout! Learn more

10-Day Weather Forecast

Advertisements
Track Severe Weather on mobile